sensor_id;sensor_type;location;lat;lon;timestamp;temperature;humidity
57390;DHT22;43217;52.694;6.214;2022-11-25T00:00:47;7.60;99.90
57390;DHT22;43217;52.694;6.214;2022-11-25T00:03:12;7.70;99.90
57390;DHT22;43217;52.694;6.214;2022-11-25T00:05:38;7.60;99.90
57390;DHT22;43217;52.694;6.214;2022-11-25T00:08:03;7.60;99.90
57390;DHT22;43217;52.694;6.214;2022-11-25T00:10:29;7.60;99.90
57390;DHT22;43217;52.694;6.214;2022-11-25T00:12:55;7.60;99.90
57390;DHT22;43217;52.694;6.214;2022-11-25T00:15:21;7.70;99.90
57390;DHT22;43217;52.694;6.214;2022-11-25T00:17:46;7.70;99.90
57390;DHT22;43217;52.694;6.214;2022-11-25T00:20:12;7.70;99.90
57390;DHT22;43217;52.694;6.214;2022-11-25T00:22:37;7.70;99.90
57390;DHT22;43217;52.694;6.214;2022-11-25T00:25:03;7.70;99.90
57390;DHT22;43217;52.694;6.214;2022-11-25T00:27:29;7.70;99.90
57390;DHT22;43217;52.694;6.214;2022-11-25T00:29:54;7.70;99.90
57390;DHT22;43217;52.694;6.214;2022-11-25T00:32:20;7.70;99.90
57390;DHT22;43217;52.694;6.214;2022-11-25T00:34:46;7.80;99.90
57390;DHT22;43217;52.694;6.214;2022-11-25T00:37:12;7.70;99.90
57390;DHT22;43217;52.694;6.214;2022-11-25T00:39:37;7.70;99.90
57390;DHT22;43217;52.694;6.214;2022-11-25T00:42:03;7.70;99.90
57390;DHT22;43217;52.694;6.214;2022-11-25T00:44:47;7.80;99.90
57390;DHT22;43217;52.694;6.214;2022-11-25T00:47:18;7.70;99.90
57390;DHT22;43217;52.694;6.214;2022-11-25T00:49:49;7.80;99.90
57390;DHT22;43217;52.694;6.214;2022-11-25T00:52:17;7.80;99.90
57390;DHT22;43217;52.694;6.214;2022-11-25T00:54:43;7.70;99.90
57390;DHT22;43217;52.694;6.214;2022-11-25T00:57:11;7.70;99.90
57390;DHT22;43217;52.694;6.214;2022-11-25T00:59:37;7.80;99.90
57390;DHT22;43217;52.694;6.214;2022-11-25T01:02:02;7.80;99.90
57390;DHT22;43217;52.694;6.214;2022-11-25T01:04:28;7.80;99.90
57390;DHT22;43217;52.694;6.214;2022-11-25T01:06:54;7.80;99.90
57390;DHT22;43217;52.694;6.214;2022-11-25T01:09:21;7.80;99.90
57390;DHT22;43217;52.694;6.214;2022-11-25T01:11:51;7.80;99.90
57390;DHT22;43217;52.694;6.214;2022-11-25T01:14:17;7.80;99.90
57390;DHT22;43217;52.694;6.214;2022-11-25T01:16:43;7.80;99.90
57390;DHT22;43217;52.694;6.214;2022-11-25T01:19:10;7.80;99.90
57390;DHT22;43217;52.694;6.214;2022-11-25T01:21:36;7.80;99.90
57390;DHT22;43217;52.694;6.214;2022-11-25T01:24:03;7.80;99.90
57390;DHT22;43217;52.694;6.214;2022-11-25T01:26:30;7.80;99.90
57390;DHT22;43217;52.694;6.214;2022-11-25T01:28:59;7.70;99.90
57390;DHT22;43217;52.694;6.214;2022-11-25T01:31:27;7.70;99.90
57390;DHT22;43217;52.694;6.214;2022-11-25T01:33:56;7.70;99.90
57390;DHT22;43217;52.694;6.214;2022-11-25T01:36:22;7.70;99.90
57390;DHT22;43217;52.694;6.214;2022-11-25T01:38:50;7.60;99.90
57390;DHT22;43217;52.694;6.214;2022-11-25T01:41:16;7.60;99.90
57390;DHT22;43217;52.694;6.214;2022-11-25T01:43:42;7.60;99.90
57390;DHT22;43217;52.694;6.214;2022-11-25T01:46:20;7.60;99.90
57390;DHT22;43217;52.694;6.214;2022-11-25T01:48:51;7.60;99.90
57390;DHT22;43217;52.694;6.214;2022-11-25T01:51:27;7.60;99.90
57390;DHT22;43217;52.694;6.214;2022-11-25T01:53:56;7.60;99.90
57390;DHT22;43217;52.694;6.214;2022-11-25T01:56:25;7.60;99.90
57390;DHT22;43217;52.694;6.214;2022-11-25T01:58:53;7.50;99.90
57390;DHT22;43217;52.694;6.214;2022-11-25T02:01:19;7.50;99.90
57390;DHT22;43217;52.694;6.214;2022-11-25T02:03:48;7.50;99.90
57390;DHT22;43217;52.694;6.214;2022-11-25T02:08:50;7.60;99.90
57390;DHT22;43217;52.694;6.214;2022-11-25T02:11:18;7.60;99.90
57390;DHT22;43217;52.694;6.214;2022-11-25T02:13:46;7.60;99.90
57390;DHT22;43217;52.694;6.214;2022-11-25T02:16:12;7.60;99.90
57390;DHT22;43217;52.694;6.214;2022-11-25T02:18:38;7.50;99.90
57390;DHT22;43217;52.694;6.214;2022-11-25T02:21:04;7.60;99.90
57390;DHT22;43217;52.694;6.214;2022-11-25T02:23:35;7.60;99.90
57390;DHT22;43217;52.694;6.214;2022-11-25T02:26:03;7.60;99.90
57390;DHT22;43217;52.694;6.214;2022-11-25T02:28:30;7.60;99.90
57390;DHT22;43217;52.694;6.214;2022-11-25T02:30:57;7.60;99.90
57390;DHT22;43217;52.694;6.214;2022-11-25T02:33:23;7.60;99.90
57390;DHT22;43217;52.694;6.214;2022-11-25T02:38:21;7.60;99.90
57390;DHT22;43217;52.694;6.214;2022-11-25T02:40:58;7.60;99.90
57390;DHT22;43217;52.694;6.214;2022-11-25T02:43:26;7.60;99.90
57390;DHT22;43217;52.694;6.214;2022-11-25T02:46:28;7.60;99.90
57390;DHT22;43217;52.694;6.214;2022-11-25T02:48:55;7.60;99.90
57390;DHT22;43217;52.694;6.214;2022-11-25T02:51:24;7.60;99.90
57390;DHT22;43217;52.694;6.214;2022-11-25T02:53:51;7.60;99.90
57390;DHT22;43217;52.694;6.214;2022-11-25T02:56:18;7.60;99.90
57390;DHT22;43217;52.694;6.214;2022-11-25T02:58:44;7.60;99.90
57390;DHT22;43217;52.694;6.214;2022-11-25T03:01:09;7.60;99.90
57390;DHT22;43217;52.694;6.214;2022-11-25T03:03:36;7.70;99.90
57390;DHT22;43217;52.694;6.214;2022-11-25T03:06:02;7.70;99.90
57390;DHT22;43217;52.694;6.214;2022-11-25T03:08:27;7.70;99.90
57390;DHT22;43217;52.694;6.214;2022-11-25T03:10:53;7.70;99.90
57390;DHT22;43217;52.694;6.214;2022-11-25T03:13:19;7.70;99.90
57390;DHT22;43217;52.694;6.214;2022-11-25T03:15:45;7.70;99.90
57390;DHT22;43217;52.694;6.214;2022-11-25T03:18:10;7.70;99.90
57390;DHT22;43217;52.694;6.214;2022-11-25T03:20:36;7.70;99.90
57390;DHT22;43217;52.694;6.214;2022-11-25T03:23:03;7.70;99.90
57390;DHT22;43217;52.694;6.214;2022-11-25T03:25:29;7.70;99.90
57390;DHT22;43217;52.694;6.214;2022-11-25T03:27:55;7.70;99.90
57390;DHT22;43217;52.694;6.214;2022-11-25T03:30:23;7.70;99.90
57390;DHT22;43217;52.694;6.214;2022-11-25T03:32:49;7.70;99.90
57390;DHT22;43217;52.694;6.214;2022-11-25T03:35:16;7.70;99.90
57390;DHT22;43217;52.694;6.214;2022-11-25T03:37:42;7.80;99.90
57390;DHT22;43217;52.694;6.214;2022-11-25T03:40:09;7.80;99.90
57390;DHT22;43217;52.694;6.214;2022-11-25T03:42:35;7.80;99.90
57390;DHT22;43217;52.694;6.214;2022-11-25T03:45:01;7.80;99.90
57390;DHT22;43217;52.694;6.214;2022-11-25T03:47:27;7.80;99.90
57390;DHT22;43217;52.694;6.214;2022-11-25T03:49:52;7.80;99.90
57390;DHT22;43217;52.694;6.214;2022-11-25T03:52:18;7.80;99.90
57390;DHT22;43217;52.694;6.214;2022-11-25T03:54:44;7.90;99.90
57390;DHT22;43217;52.694;6.214;2022-11-25T03:57:09;7.90;99.90
57390;DHT22;43217;52.694;6.214;2022-11-25T03:59:35;7.90;99.90
57390;DHT22;43217;52.694;6.214;2022-11-25T04:02:01;7.90;99.90
57390;DHT22;43217;52.694;6.214;2022-11-25T04:04:26;7.90;99.90
57390;DHT22;43217;52.694;6.214;2022-11-25T04:06:52;7.90;99.90
57390;DHT22;43217;52.694;6.214;2022-11-25T04:09:17;7.90;99.90
57390;DHT22;43217;52.694;6.214;2022-11-25T04:11:43;7.90;99.90
57390;DHT22;43217;52.694;6.214;2022-11-25T04:14:28;7.90;99.90
57390;DHT22;43217;52.694;6.214;2022-11-25T04:16:54;7.90;99.90
57390;DHT22;43217;52.694;6.214;2022-11-25T04:19:20;8.00;99.90
57390;DHT22;43217;52.694;6.214;2022-11-25T04:21:45;7.90;99.90
57390;DHT22;43217;52.694;6.214;2022-11-25T04:24:11;8.00;99.90
57390;DHT22;43217;52.694;6.214;2022-11-25T04:26:36;8.00;99.90
57390;DHT22;43217;52.694;6.214;2022-11-25T04:29:03;8.00;99.90
57390;DHT22;43217;52.694;6.214;2022-11-25T04:31:28;8.00;99.90
57390;DHT22;43217;52.694;6.214;2022-11-25T04:33:54;8.00;99.90
57390;DHT22;43217;52.694;6.214;2022-11-25T04:36:19;8.00;99.90
57390;DHT22;43217;52.694;6.214;2022-11-25T04:38:45;8.00;99.90
57390;DHT22;43217;52.694;6.214;2022-11-25T04:41:11;8.00;99.90
57390;DHT22;43217;52.694;6.214;2022-11-25T04:43:36;8.00;99.90
57390;DHT22;43217;52.694;6.214;2022-11-25T04:46:04;8.00;99.90
57390;DHT22;43217;52.694;6.214;2022-11-25T04:48:30;8.00;99.90
57390;DHT22;43217;52.694;6.214;2022-11-25T04:50:55;8.00;99.90
57390;DHT22;43217;52.694;6.214;2022-11-25T04:53:21;8.00;99.90
57390;DHT22;43217;52.694;6.214;2022-11-25T04:55:47;8.00;99.90
57390;DHT22;43217;52.694;6.214;2022-11-25T04:58:13;8.00;99.90
57390;DHT22;43217;52.694;6.214;2022-11-25T05:00:38;8.10;99.90
57390;DHT22;43217;52.694;6.214;2022-11-25T05:03:05;8.10;99.90
57390;DHT22;43217;52.694;6.214;2022-11-25T05:05:31;8.10;99.90
57390;DHT22;43217;52.694;6.214;2022-11-25T05:07:56;8.10;99.90
57390;DHT22;43217;52.694;6.214;2022-11-25T05:10:22;8.10;99.90
57390;DHT22;43217;52.694;6.214;2022-11-25T05:12:48;8.10;99.90
57390;DHT22;43217;52.694;6.214;2022-11-25T05:15:14;8.10;99.90
57390;DHT22;43217;52.694;6.214;2022-11-25T05:17:39;8.10;99.90
57390;DHT22;43217;52.694;6.214;2022-11-25T05:20:06;8.20;99.90
57390;DHT22;43217;52.694;6.214;2022-11-25T05:22:32;8.20;99.90
57390;DHT22;43217;52.694;6.214;2022-11-25T05:24:58;8.20;99.90
57390;DHT22;43217;52.694;6.214;2022-11-25T05:27:25;8.20;99.90
57390;DHT22;43217;52.694;6.214;2022-11-25T05:29:50;8.20;99.90
57390;DHT22;43217;52.694;6.214;2022-11-25T05:32:16;8.20;99.90
57390;DHT22;43217;52.694;6.214;2022-11-25T05:34:42;8.20;99.90
57390;DHT22;43217;52.694;6.214;2022-11-25T05:37:09;8.20;99.90
57390;DHT22;43217;52.694;6.214;2022-11-25T05:39:36;8.20;99.90
57390;DHT22;43217;52.694;6.214;2022-11-25T05:42:02;8.20;99.90
57390;DHT22;43217;52.694;6.214;2022-11-25T05:44:28;8.20;99.90
57390;DHT22;43217;52.694;6.214;2022-11-25T05:46:53;8.20;99.90
57390;DHT22;43217;52.694;6.214;2022-11-25T05:49:19;8.30;99.90
57390;DHT22;43217;52.694;6.214;2022-11-25T05:51:45;8.20;99.90
57390;DHT22;43217;52.694;6.214;2022-11-25T05:54:11;8.20;99.90
57390;DHT22;43217;52.694;6.214;2022-11-25T05:56:37;8.20;99.90
57390;DHT22;43217;52.694;6.214;2022-11-25T05:59:04;8.20;99.90
57390;DHT22;43217;52.694;6.214;2022-11-25T06:01:30;8.20;99.90
57390;DHT22;43217;52.694;6.214;2022-11-25T06:03:59;8.30;99.90
57390;DHT22;43217;52.694;6.214;2022-11-25T06:06:25;8.30;99.90
57390;DHT22;43217;52.694;6.214;2022-11-25T06:08:50;8.30;99.90
57390;DHT22;43217;52.694;6.214;2022-11-25T06:11:16;8.30;99.90
57390;DHT22;43217;52.694;6.214;2022-11-25T06:13:43;8.30;99.90
57390;DHT22;43217;52.694;6.214;2022-11-25T06:16:11;8.20;99.90
57390;DHT22;43217;52.694;6.214;2022-11-25T06:18:38;8.20;99.90
57390;DHT22;43217;52.694;6.214;2022-11-25T06:21:04;8.20;99.90
57390;DHT22;43217;52.694;6.214;2022-11-25T06:23:30;8.20;99.90
57390;DHT22;43217;52.694;6.214;2022-11-25T06:26:07;8.10;99.90
57390;DHT22;43217;52.694;6.214;2022-11-25T06:28:33;8.10;99.90
57390;DHT22;43217;52.694;6.214;2022-11-25T06:31:09;8.10;99.90
57390;DHT22;43217;52.694;6.214;2022-11-25T06:33:35;8.00;99.90
57390;DHT22;43217;52.694;6.214;2022-11-25T06:36:03;7.90;99.90
57390;DHT22;43217;52.694;6.214;2022-11-25T06:38:29;7.90;99.90
57390;DHT22;43217;52.694;6.214;2022-11-25T06:41:03;7.90;99.90
57390;DHT22;43217;52.694;6.214;2022-11-25T06:43:30;7.80;99.90
57390;DHT22;43217;52.694;6.214;2022-11-25T06:46:01;7.80;99.90
57390;DHT22;43217;52.694;6.214;2022-11-25T06:48:27;7.80;99.90
57390;DHT22;43217;52.694;6.214;2022-11-25T06:51:01;7.70;99.90
57390;DHT22;43217;52.694;6.214;2022-11-25T06:53:28;7.70;99.90
57390;DHT22;43217;52.694;6.214;2022-11-25T06:56:22;7.60;99.90
57390;DHT22;43217;52.694;6.214;2022-11-25T06:58:48;7.60;99.90
57390;DHT22;43217;52.694;6.214;2022-11-25T07:01:17;7.60;99.90
57390;DHT22;43217;52.694;6.214;2022-11-25T07:03:44;7.50;99.90
57390;DHT22;43217;52.694;6.214;2022-11-25T07:06:13;7.50;99.90
57390;DHT22;43217;52.694;6.214;2022-11-25T07:08:39;7.40;99.90
57390;DHT22;43217;52.694;6.214;2022-11-25T07:11:20;7.40;99.90
57390;DHT22;43217;52.694;6.214;2022-11-25T07:13:46;7.40;99.90
57390;DHT22;43217;52.694;6.214;2022-11-25T07:16:13;7.40;99.90
57390;DHT22;43217;52.694;6.214;2022-11-25T07:18:40;7.40;99.90
57390;DHT22;43217;52.694;6.214;2022-11-25T07:21:14;7.40;99.90
57390;DHT22;43217;52.694;6.214;2022-11-25T07:23:42;7.40;99.90
57390;DHT22;43217;52.694;6.214;2022-11-25T07:26:14;7.40;99.90
57390;DHT22;43217;52.694;6.214;2022-11-25T07:28:41;7.40;99.90
57390;DHT22;43217;52.694;6.214;2022-11-25T07:31:09;7.40;99.90
57390;DHT22;43217;52.694;6.214;2022-11-25T07:33:36;7.40;99.90
57390;DHT22;43217;52.694;6.214;2022-11-25T07:36:07;7.40;99.90
57390;DHT22;43217;52.694;6.214;2022-11-25T07:38:34;7.40;99.90
57390;DHT22;43217;52.694;6.214;2022-11-25T07:43:30;7.40;99.90
57390;DHT22;43217;52.694;6.214;2022-11-25T07:45:55;7.40;99.90
57390;DHT22;43217;52.694;6.214;2022-11-25T07:48:21;7.30;99.90
57390;DHT22;43217;52.694;6.214;2022-11-25T07:50:46;7.40;99.90
57390;DHT22;43217;52.694;6.214;2022-11-25T07:53:14;7.40;99.90
57390;DHT22;43217;52.694;6.214;2022-11-25T07:55:40;7.40;99.90
57390;DHT22;43217;52.694;6.214;2022-11-25T07:58:06;7.40;99.90
57390;DHT22;43217;52.694;6.214;2022-11-25T08:00:31;7.40;99.90
57390;DHT22;43217;52.694;6.214;2022-11-25T08:02:57;7.40;99.90
57390;DHT22;43217;52.694;6.214;2022-11-25T08:05:22;7.50;99.90
57390;DHT22;43217;52.694;6.214;2022-11-25T08:07:48;7.50;99.90
57390;DHT22;43217;52.694;6.214;2022-11-25T08:10:13;7.50;99.90
57390;DHT22;43217;52.694;6.214;2022-11-25T08:12:40;7.60;99.90
57390;DHT22;43217;52.694;6.214;2022-11-25T08:15:07;7.60;99.90
57390;DHT22;43217;52.694;6.214;2022-11-25T08:17:33;7.70;99.90
57390;DHT22;43217;52.694;6.214;2022-11-25T08:19:58;7.70;99.90
57390;DHT22;43217;52.694;6.214;2022-11-25T08:22:24;7.70;99.90
57390;DHT22;43217;52.694;6.214;2022-11-25T08:24:50;7.70;99.90
57390;DHT22;43217;52.694;6.214;2022-11-25T08:27:15;7.70;99.90
57390;DHT22;43217;52.694;6.214;2022-11-25T08:29:41;7.70;99.90
57390;DHT22;43217;52.694;6.214;2022-11-25T08:32:07;7.70;99.90
57390;DHT22;43217;52.694;6.214;2022-11-25T08:34:33;7.70;99.90
57390;DHT22;43217;52.694;6.214;2022-11-25T08:36:59;7.70;99.90
57390;DHT22;43217;52.694;6.214;2022-11-25T08:39:24;7.70;99.90
57390;DHT22;43217;52.694;6.214;2022-11-25T08:41:50;7.70;99.90
57390;DHT22;43217;52.694;6.214;2022-11-25T08:44:16;7.70;99.90
57390;DHT22;43217;52.694;6.214;2022-11-25T08:46:42;7.70;99.90
57390;DHT22;43217;52.694;6.214;2022-11-25T08:49:08;7.70;99.90
57390;DHT22;43217;52.694;6.214;2022-11-25T08:51:36;7.70;99.90
57390;DHT22;43217;52.694;6.214;2022-11-25T08:54:02;7.80;99.90
57390;DHT22;43217;52.694;6.214;2022-11-25T08:56:28;7.80;99.90
57390;DHT22;43217;52.694;6.214;2022-11-25T08:58:54;7.80;99.90
57390;DHT22;43217;52.694;6.214;2022-11-25T09:01:21;7.80;99.90
57390;DHT22;43217;52.694;6.214;2022-11-25T09:03:49;7.80;99.90
57390;DHT22;43217;52.694;6.214;2022-11-25T09:06:15;7.90;99.90
57390;DHT22;43217;52.694;6.214;2022-11-25T09:08:42;7.90;99.90
57390;DHT22;43217;52.694;6.214;2022-11-25T09:11:09;7.90;99.90
57390;DHT22;43217;52.694;6.214;2022-11-25T09:13:35;8.00;99.90
57390;DHT22;43217;52.694;6.214;2022-11-25T09:16:01;8.00;99.90
57390;DHT22;43217;52.694;6.214;2022-11-25T09:18:27;8.00;99.90
57390;DHT22;43217;52.694;6.214;2022-11-25T09:20:54;8.10;99.90
57390;DHT22;43217;52.694;6.214;2022-11-25T09:23:20;8.10;99.90
57390;DHT22;43217;52.694;6.214;2022-11-25T09:25:51;8.20;99.90
57390;DHT22;43217;52.694;6.214;2022-11-25T09:28:18;8.20;99.90
57390;DHT22;43217;52.694;6.214;2022-11-25T09:30:43;8.20;99.90
57390;DHT22;43217;52.694;6.214;2022-11-25T09:33:09;8.30;99.90
57390;DHT22;43217;52.694;6.214;2022-11-25T09:35:35;8.30;99.90
57390;DHT22;43217;52.694;6.214;2022-11-25T09:38:01;8.40;99.90
57390;DHT22;43217;52.694;6.214;2022-11-25T09:40:50;8.40;99.90
57390;DHT22;43217;52.694;6.214;2022-11-25T09:54:43;8.70;99.90
57390;DHT22;43217;52.694;6.214;2022-11-25T09:57:26;8.70;99.90
57390;DHT22;43217;52.694;6.214;2022-11-25T10:00:13;8.70;99.90
57390;DHT22;43217;52.694;6.214;2022-11-25T10:03:04;8.70;99.90
57390;DHT22;43217;52.694;6.214;2022-11-25T10:05:42;8.80;99.90
57390;DHT22;43217;52.694;6.214;2022-11-25T10:08:25;8.90;99.90
57390;DHT22;43217;52.694;6.214;2022-11-25T10:14:01;9.00;99.90
57390;DHT22;43217;52.694;6.214;2022-11-25T10:16:34;9.00;99.90
57390;DHT22;43217;52.694;6.214;2022-11-25T10:21:57;9.10;99.90
57390;DHT22;43217;52.694;6.214;2022-11-25T10:24:24;9.10;99.90
57390;DHT22;43217;52.694;6.214;2022-11-25T10:27:03;9.10;99.90
57390;DHT22;43217;52.694;6.214;2022-11-25T10:29:37;9.10;99.90
57390;DHT22;43217;52.694;6.214;2022-11-25T10:32:18;9.20;99.90
57390;DHT22;43217;52.694;6.214;2022-11-25T10:34:48;9.20;99.90
57390;DHT22;43217;52.694;6.214;2022-11-25T10:37:43;9.20;99.90
57390;DHT22;43217;52.694;6.214;2022-11-25T10:40:14;9.30;99.90
57390;DHT22;43217;52.694;6.214;2022-11-25T10:42:41;9.40;99.90
57390;DHT22;43217;52.694;6.214;2022-11-25T10:45:07;9.40;99.90
57390;DHT22;43217;52.694;6.214;2022-11-25T10:48:17;9.40;99.90
57390;DHT22;43217;52.694;6.214;2022-11-25T10:53:24;9.50;99.90
57390;DHT22;43217;52.694;6.214;2022-11-25T10:56:09;9.60;99.90
57390;DHT22;43217;52.694;6.214;2022-11-25T10:58:36;9.60;99.90
57390;DHT22;43217;52.694;6.214;2022-11-25T11:01:16;9.60;99.90
57390;DHT22;43217;52.694;6.214;2022-11-25T11:03:45;9.60;99.90
57390;DHT22;43217;52.694;6.214;2022-11-25T11:06:36;9.70;99.90
57390;DHT22;43217;52.694;6.214;2022-11-25T11:09:03;9.70;99.90
57390;DHT22;43217;52.694;6.214;2022-11-25T11:11:28;9.70;99.90
57390;DHT22;43217;52.694;6.214;2022-11-25T11:14:12;9.70;99.90
57390;DHT22;43217;52.694;6.214;2022-11-25T11:16:42;9.70;99.90
57390;DHT22;43217;52.694;6.214;2022-11-25T11:19:27;9.80;99.90
57390;DHT22;43217;52.694;6.214;2022-11-25T11:21:54;9.80;99.90
57390;DHT22;43217;52.694;6.214;2022-11-25T11:24:31;9.80;99.90
57390;DHT22;43217;52.694;6.214;2022-11-25T11:29:35;9.90;99.90
57390;DHT22;43217;52.694;6.214;2022-11-25T11:32:04;9.90;99.90
57390;DHT22;43217;52.694;6.214;2022-11-25T11:34:48;9.90;99.90
57390;DHT22;43217;52.694;6.214;2022-11-25T11:37:31;9.90;99.90
57390;DHT22;43217;52.694;6.214;2022-11-25T11:46:07;9.90;99.90
57390;DHT22;43217;52.694;6.214;2022-11-25T11:48:38;10.00;99.90
57390;DHT22;43217;52.694;6.214;2022-11-25T11:51:18;10.00;99.90
57390;DHT22;43217;52.694;6.214;2022-11-25T11:59:33;10.10;99.90
57390;DHT22;43217;52.694;6.214;2022-11-25T12:10:15;10.20;99.90
57390;DHT22;43217;52.694;6.214;2022-11-25T12:12:52;10.30;99.90
57390;DHT22;43217;52.694;6.214;2022-11-25T12:18:40;10.30;99.90
57390;DHT22;43217;52.694;6.214;2022-11-25T12:21:45;10.30;99.90
57390;DHT22;43217;52.694;6.214;2022-11-25T12:24:50;10.30;99.90
57390;DHT22;43217;52.694;6.214;2022-11-25T12:27:30;10.30;99.90
57390;DHT22;43217;52.694;6.214;2022-11-25T12:30:00;10.30;99.90
57390;DHT22;43217;52.694;6.214;2022-11-25T12:37:38;10.50;99.90
57390;DHT22;43217;52.694;6.214;2022-11-25T12:40:17;10.50;99.90
57390;DHT22;43217;52.694;6.214;2022-11-25T12:42:46;10.50;99.90
57390;DHT22;43217;52.694;6.214;2022-11-25T12:45:21;10.50;99.90
57390;DHT22;43217;52.694;6.214;2022-11-25T12:47:47;10.50;99.90
57390;DHT22;43217;52.694;6.214;2022-11-25T12:50:20;10.40;99.90
57390;DHT22;43217;52.694;6.214;2022-11-25T12:53:42;10.40;99.90
57390;DHT22;43217;52.694;6.214;2022-11-25T12:56:00;10.50;99.90
57390;DHT22;43217;52.694;6.214;2022-11-25T12:58:33;10.50;99.90
57390;DHT22;43217;52.694;6.214;2022-11-25T13:03:54;10.60;99.90
57390;DHT22;43217;52.694;6.214;2022-11-25T13:17:25;10.70;99.90
57390;DHT22;43217;52.694;6.214;2022-11-25T13:25:43;10.70;99.90
57390;DHT22;43217;52.694;6.214;2022-11-25T13:30:53;10.70;99.90
57390;DHT22;43217;52.694;6.214;2022-11-25T13:35:54;10.50;99.90
57390;DHT22;43217;52.694;6.214;2022-11-25T13:41:03;10.40;99.90
57390;DHT22;43217;52.694;6.214;2022-11-25T13:48:53;10.30;99.90
57390;DHT22;43217;52.694;6.214;2022-11-25T13:51:22;10.30;99.90
57390;DHT22;43217;52.694;6.214;2022-11-25T13:53:54;10.30;99.90
57390;DHT22;43217;52.694;6.214;2022-11-25T13:56:30;10.30;99.90
57390;DHT22;43217;52.694;6.214;2022-11-25T14:04:15;10.50;99.90
57390;DHT22;43217;52.694;6.214;2022-11-25T14:07:02;10.60;99.90
57390;DHT22;43217;52.694;6.214;2022-11-25T14:14:59;10.70;99.90
57390;DHT22;43217;52.694;6.214;2022-11-25T14:17:47;10.70;99.90
57390;DHT22;43217;52.694;6.214;2022-11-25T14:26:11;10.70;99.90
57390;DHT22;43217;52.694;6.214;2022-11-25T14:28:51;10.60;99.90
57390;DHT22;43217;52.694;6.214;2022-11-25T14:31:25;10.60;99.90
57390;DHT22;43217;52.694;6.214;2022-11-25T14:33:58;10.70;99.90
57390;DHT22;43217;52.694;6.214;2022-11-25T14:36:34;10.70;99.90
57390;DHT22;43217;52.694;6.214;2022-11-25T14:39:12;10.70;99.90
57390;DHT22;43217;52.694;6.214;2022-11-25T14:44:24;10.60;99.90
57390;DHT22;43217;52.694;6.214;2022-11-25T14:46:57;10.50;99.90
57390;DHT22;43217;52.694;6.214;2022-11-25T14:49:23;10.50;99.90
57390;DHT22;43217;52.694;6.214;2022-11-25T14:51:50;10.40;99.90
57390;DHT22;43217;52.694;6.214;2022-11-25T14:54:20;10.30;99.90
57390;DHT22;43217;52.694;6.214;2022-11-25T14:56:46;10.30;99.90
57390;DHT22;43217;52.694;6.214;2022-11-25T14:59:13;10.20;99.90
57390;DHT22;43217;52.694;6.214;2022-11-25T15:01:50;10.20;99.90
57390;DHT22;43217;52.694;6.214;2022-11-25T15:04:20;10.10;99.90
57390;DHT22;43217;52.694;6.214;2022-11-25T15:06:49;10.10;99.90
57390;DHT22;43217;52.694;6.214;2022-11-25T15:09:23;10.10;99.90
57390;DHT22;43217;52.694;6.214;2022-11-25T15:12:12;10.00;99.90
57390;DHT22;43217;52.694;6.214;2022-11-25T15:14:42;9.90;99.90
57390;DHT22;43217;52.694;6.214;2022-11-25T15:17:29;9.90;99.90
57390;DHT22;43217;52.694;6.214;2022-11-25T15:19:57;9.80;99.90
57390;DHT22;43217;52.694;6.214;2022-11-25T15:22:23;9.70;99.90
57390;DHT22;43217;52.694;6.214;2022-11-25T15:24:50;9.70;99.90
57390;DHT22;43217;52.694;6.214;2022-11-25T15:27:24;9.60;99.90
57390;DHT22;43217;52.694;6.214;2022-11-25T15:29:51;9.50;99.90
57390;DHT22;43217;52.694;6.214;2022-11-25T15:32:26;9.50;99.90
57390;DHT22;43217;52.694;6.214;2022-11-25T15:34:54;9.50;99.90
57390;DHT22;43217;52.694;6.214;2022-11-25T15:37:20;9.40;99.90
57390;DHT22;43217;52.694;6.214;2022-11-25T15:39:46;9.40;99.90
57390;DHT22;43217;52.694;6.214;2022-11-25T15:42:24;9.40;99.90
57390;DHT22;43217;52.694;6.214;2022-11-25T15:45:00;9.30;99.90
57390;DHT22;43217;52.694;6.214;2022-11-25T15:47:31;9.30;99.90
57390;DHT22;43217;52.694;6.214;2022-11-25T15:52:25;9.20;99.90
57390;DHT22;43217;52.694;6.214;2022-11-25T15:54:55;9.20;99.90
57390;DHT22;43217;52.694;6.214;2022-11-25T15:57:34;9.10;99.90
57390;DHT22;43217;52.694;6.214;2022-11-25T16:00:16;9.10;99.90
57390;DHT22;43217;52.694;6.214;2022-11-25T16:07:56;9.00;99.90
57390;DHT22;43217;52.694;6.214;2022-11-25T16:10:25;9.00;99.90
57390;DHT22;43217;52.694;6.214;2022-11-25T16:21:08;8.80;99.90
57390;DHT22;43217;52.694;6.214;2022-11-25T16:23:36;8.80;99.90
57390;DHT22;43217;52.694;6.214;2022-11-25T16:26:04;8.70;99.90
57390;DHT22;43217;52.694;6.214;2022-11-25T16:28:34;8.60;99.90
57390;DHT22;43217;52.694;6.214;2022-11-25T16:30:59;8.60;99.90
57390;DHT22;43217;52.694;6.214;2022-11-25T16:33:26;8.60;99.90
57390;DHT22;43217;52.694;6.214;2022-11-25T16:35:53;8.60;99.90
57390;DHT22;43217;52.694;6.214;2022-11-25T16:38:19;8.60;99.90
57390;DHT22;43217;52.694;6.214;2022-11-25T16:40:45;8.60;99.90
57390;DHT22;43217;52.694;6.214;2022-11-25T16:43:26;8.60;99.90
57390;DHT22;43217;52.694;6.214;2022-11-25T16:45:53;8.50;99.90
57390;DHT22;43217;52.694;6.214;2022-11-25T16:48:21;8.50;99.90
57390;DHT22;43217;52.694;6.214;2022-11-25T16:50:48;8.40;99.90
57390;DHT22;43217;52.694;6.214;2022-11-25T16:53:14;8.40;99.90
57390;DHT22;43217;52.694;6.214;2022-11-25T16:55:42;8.30;99.90
57390;DHT22;43217;52.694;6.214;2022-11-25T16:58:15;8.30;99.90
57390;DHT22;43217;52.694;6.214;2022-11-25T17:00:47;8.30;99.90
57390;DHT22;43217;52.694;6.214;2022-11-25T17:03:14;8.20;99.90
57390;DHT22;43217;52.694;6.214;2022-11-25T17:05:40;8.20;99.90
57390;DHT22;43217;52.694;6.214;2022-11-25T17:08:05;8.10;99.90
57390;DHT22;43217;52.694;6.214;2022-11-25T17:10:31;8.10;99.90
57390;DHT22;43217;52.694;6.214;2022-11-25T17:12:58;8.00;99.90
57390;DHT22;43217;52.694;6.214;2022-11-25T17:15:32;7.90;99.90
57390;DHT22;43217;52.694;6.214;2022-11-25T17:18:00;7.90;99.90
57390;DHT22;43217;52.694;6.214;2022-11-25T17:20:26;7.80;99.90
57390;DHT22;43217;52.694;6.214;2022-11-25T17:22:52;7.80;99.90
57390;DHT22;43217;52.694;6.214;2022-11-25T17:25:18;7.80;99.90
57390;DHT22;43217;52.694;6.214;2022-11-25T17:27:46;7.70;99.90
57390;DHT22;43217;52.694;6.214;2022-11-25T17:30:24;7.70;99.90
57390;DHT22;43217;52.694;6.214;2022-11-25T17:33:03;7.70;99.90
57390;DHT22;43217;52.694;6.214;2022-11-25T17:35:29;7.80;99.90
57390;DHT22;43217;52.694;6.214;2022-11-25T17:37:57;7.80;99.90
57390;DHT22;43217;52.694;6.214;2022-11-25T17:40:23;7.80;99.90
57390;DHT22;43217;52.694;6.214;2022-11-25T17:42:49;7.80;99.90
57390;DHT22;43217;52.694;6.214;2022-11-25T17:45:17;7.90;99.90
57390;DHT22;43217;52.694;6.214;2022-11-25T17:47:44;7.80;99.90
57390;DHT22;43217;52.694;6.214;2022-11-25T17:50:21;7.80;99.90
57390;DHT22;43217;52.694;6.214;2022-11-25T17:52:48;7.80;99.90
57390;DHT22;43217;52.694;6.214;2022-11-25T17:55:14;7.70;99.90
57390;DHT22;43217;52.694;6.214;2022-11-25T17:57:45;7.70;99.90
57390;DHT22;43217;52.694;6.214;2022-11-25T18:00:13;7.60;99.90
57390;DHT22;43217;52.694;6.214;2022-11-25T18:02:39;7.60;99.90
57390;DHT22;43217;52.694;6.214;2022-11-25T18:05:14;7.50;99.90